In Rescue
 
Open Full Screen Window  High Contrast Mode
Wind Gusting 15 knots
07
July 10, 2020 12:42 PM CDT
Weather Information
Wind Direction
  300 °
Wind Speed
  07 kt (8 mph)
Wind Gust
  15 kt (17 mph)
Altimeter
29.93 in
Visibility
10 SM
Temperature
23° C
73° F
Dewpoint
16° C
61° F
Humidity
65%
1hr Rain Fall
00.00 in.
24hr Rain Fall
00.00 in.
Sky Condition
Scattered @ 5,500 ft
Scattered @ 4,700 ft
VFR

METAR KRRT 101742Z AUTO 30007G15KT 10SM SCT047 SCT055 23/16 A2993 RMK AO2

FAA Disclaimer: The data displayed is for advisory purposes only and is not to be used for flight planning or operations.